Sklinnabanken — LJQM — position and weather

sailwx.info

Track history (hours):
 
Tides and Currents Weather Stations Pressure Air Temp Water Temp Dewpoint Dewpoint Depression Visibility Wind Speed Wind Dir Waves Ship Positions

Sklinnabanken

Last reported at 2017-Apr-30 07:34 UTC. Time now 2017-May-23 03:19 UTC.
Position N 69°24' E 018°07'.
Warning: this ship's position is 22 days out of date.

Length 28 m; draft 6 m.

Type: Fishing. MMSI: 259648000.

Date/timePositionNaut miles runAvg speedWind from/ knotsBaromVisibWave heightAir tempDewpointWater temp
2017-Apr-30 07:34N 69°24' E 018°07'1 8.9
2017-Apr-30 07:30N 69°23' E 018°06'4 8.5
2017-Apr-30 07:00N 69°20' E 018°01'4 8.0
2017-Apr-30 06:30N 69°16' E 017°58'4 8.1
2017-Apr-30 06:00N 69°12' E 018°01'4 8.2
2017-Apr-30 05:30N 69°09' E 017°52'4 8.5
2017-Apr-30 05:00N 69°07' E 017°41'4 8.7
2017-Apr-30 04:31N 69°06' E 017°30'9 8.5
2017-Apr-30 03:30N 68°59' E 017°14'10 8.8
2017-Apr-30 02:25N 68°52' E 016°58'5 9.0
2017-Apr-30 01:49N 68°47' E 016°50'3 8.8
2017-Apr-30 01:30N 68°45' E 016°46'69 8.5
2017-Apr-29 17:22N 67°52' E 014°43'5 8.8
2017-Apr-29 16:48N 67°49' E 014°34'5 8.6
2017-Apr-29 16:13N 67°44' E 014°31'2 8.8
2017-Apr-29 16:00N 67°42' E 014°31'4 8.8
2017-Apr-29 15:30N 67°38' E 014°30'5 8.7
2017-Apr-29 14:58N 67°33' E 014°30'4 9.0
2017-Apr-29 14:30N 67°29' E 014°29'9 9.0
2017-Apr-29 13:30N 67°20' E 014°21'4 9.0
2017-Apr-29 13:00N 67°17' E 014°14'5 9.1
2017-Apr-29 12:30N 67°13' E 014°08'5 9.5
2017-Apr-29 12:00N 67°09' E 014°02'5 9.4
2017-Apr-29 11:30N 67°05' E 013°55'5 9.1
2017-Apr-29 11:00N 67°02' E 013°47'4 9.0
2017-Apr-29 10:30N 66°60' E 013°37'5 8.4
2017-Apr-29 09:54N 66°55' E 013°29'5 8.8
2017-Apr-29 09:20N 66°52' E 013°21'9 8.6
2017-Apr-29 08:20N 66°44' E 013°12'4 9.0
2017-Apr-29 07:54N 66°40' E 013°09'4 4.7
2017-Apr-29 06:57N 66°36' E 013°11'5 8.5
2017-Apr-29 06:22N 66°33' E 013°01'3 7.8
2017-Apr-29 05:58N 66°30' E 012°59'4 9.1
2017-Apr-29 05:30N 66°25' E 012°59'5 9.4
2017-Apr-29 05:00N 66°21' E 012°57'8 9.0
2017-Apr-29 04:07N 66°13' E 012°53'7 8.6
2017-Apr-29 03:19N 66°07' E 012°45'54 7.3
2017-Apr-28 19:53N 65°16' E 011°57'4 9.2
2017-Apr-28 19:26N 65°13' E 011°53'4 8.9
2017-Apr-28 19:00N 65°09' E 011°50'5 9.0
2017-Apr-28 18:30N 65°05' E 011°46'4 9.0
2017-Apr-28 18:00N 65°01' E 011°41'4 8.6
2017-Apr-28 17:30N 64°58' E 011°34'4 8.8
2017-Apr-28 17:00N 64°56' E 011°25'4 8.5
2017-Apr-28 16:31N 64°53' E 011°18'4 7.5
2017-Apr-28 16:00N 64°50' E 011°11'4 8.9
2017-Apr-28 15:30N 64°47' E 011°04'74 8.6
2017-Apr-28 06:55N 63°45' E 009°32'4 8.8
2017-Apr-28 06:31N 63°42' E 009°30'4 8.3
2017-Apr-28 06:00N 63°38' E 009°28'4 8.2
2017-Apr-28 05:30N 63°34' E 009°23'4 8.4
2017-Apr-28 05:00N 63°32' E 009°15'4 8.1
2017-Apr-28 04:30N 63°30' E 009°07'22 8.5
2017-Apr-28 01:59N 63°21' E 008°23'4 9.0
2017-Apr-28 01:30N 63°19' E 008°16'4 8.9
2017-Apr-28 01:00N 63°16' E 008°08'4 8.9
2017-Apr-28 00:30N 63°14' E 007°59'4 8.9
2017-Apr-28 00:00N 63°12' E 007°51'5 9.0
2017-Apr-27 23:30N 63°09' E 007°42'4 9.0
2017-Apr-27 23:00N 63°07' E 007°34'5 9.1
2017-Apr-27 22:30N 63°04' E 007°25'4 9.0
2017-Apr-27 22:00N 63°03' E 007°16'5 8.9
2017-Apr-27 21:30N 63°01' E 007°07'13 8.5
2017-Apr-27 19:56N 62°53' E 006°44'4 8.8
2017-Apr-27 19:31N 62°50' E 006°39'4 8.9
2017-Apr-27 19:01N 62°46' E 006°34'7 9.1
2017-Apr-27 18:15N 62°40' E 006°25'  
2017-Apr-24 19:24N 62°27' E 005°58'3 8.3
2017-Apr-24 18:59N 62°25' E 005°52'5 8.3
2017-Apr-24 18:20N 62°21' E 005°45'2 6.8
2017-Apr-24 18:00N 62°19' E 005°41'4 8.6
2017-Apr-24 17:30N 62°18' E 005°33'1 0.1
2017-Apr-23 18:14N 62°17' E 005°30'2 8.8
2017-Apr-23 18:00N 62°18' E 005°34'4 8.6
2017-Apr-23 17:30N 62°19' E 005°43'4 7.7
2017-Apr-23 17:00N 62°22' E 005°48'4 8.0
2017-Apr-23 16:30N 62°25' E 005°53'  
Track history (hours):
 
Tides and Currents Weather Stations Pressure Air Temp Water Temp Dewpoint Dewpoint Depression Visibility Wind Speed Wind Dir Waves Ship Positions

Sklinnabanken

Last reported at 2017-Apr-30 07:34 UTC. Time now 2017-May-23 03:19 UTC.
Position N 69°24' E 018°07'.
Warning: this ship's position is 22 days out of date.

Length 28 m; draft 6 m.

Type: Fishing. MMSI: 259648000.

Date/timePositionNaut miles runAvg speedWind from/ knotsBaromVisibWave heightAir tempDewpointWater temp
2017-Apr-30 07:34N 69°24' E 018°07'1 8.9
2017-Apr-30 07:30N 69°23' E 018°06'4 8.5
2017-Apr-30 07:00N 69°20' E 018°01'4 8.0
2017-Apr-30 06:30N 69°16' E 017°58'4 8.1
2017-Apr-30 06:00N 69°12' E 018°01'4 8.2
2017-Apr-30 05:30N 69°09' E 017°52'4 8.5
2017-Apr-30 05:00N 69°07' E 017°41'4 8.7
2017-Apr-30 04:31N 69°06' E 017°30'9 8.5
2017-Apr-30 03:30N 68°59' E 017°14'10 8.8
2017-Apr-30 02:25N 68°52' E 016°58'5 9.0
2017-Apr-30 01:49N 68°47' E 016°50'3 8.8
2017-Apr-30 01:30N 68°45' E 016°46'69 8.5
2017-Apr-29 17:22N 67°52' E 014°43'5 8.8
2017-Apr-29 16:48N 67°49' E 014°34'5 8.6
2017-Apr-29 16:13N 67°44' E 014°31'2 8.8
2017-Apr-29 16:00N 67°42' E 014°31'4 8.8
2017-Apr-29 15:30N 67°38' E 014°30'5 8.7
2017-Apr-29 14:58N 67°33' E 014°30'4 9.0
2017-Apr-29 14:30N 67°29' E 014°29'9 9.0
2017-Apr-29 13:30N 67°20' E 014°21'4 9.0
2017-Apr-29 13:00N 67°17' E 014°14'5 9.1
2017-Apr-29 12:30N 67°13' E 014°08'5 9.5
2017-Apr-29 12:00N 67°09' E 014°02'5 9.4
2017-Apr-29 11:30N 67°05' E 013°55'5 9.1
2017-Apr-29 11:00N 67°02' E 013°47'4 9.0
2017-Apr-29 10:30N 66°60' E 013°37'5 8.4
2017-Apr-29 09:54N 66°55' E 013°29'5 8.8
2017-Apr-29 09:20N 66°52' E 013°21'9 8.6
2017-Apr-29 08:20N 66°44' E 013°12'4 9.0
2017-Apr-29 07:54N 66°40' E 013°09'4 4.7
2017-Apr-29 06:57N 66°36' E 013°11'5 8.5
2017-Apr-29 06:22N 66°33' E 013°01'3 7.8
2017-Apr-29 05:58N 66°30' E 012°59'4 9.1
2017-Apr-29 05:30N 66°25' E 012°59'5 9.4
2017-Apr-29 05:00N 66°21' E 012°57'8 9.0
2017-Apr-29 04:07N 66°13' E 012°53'7 8.6
2017-Apr-29 03:19N 66°07' E 012°45'54 7.3
2017-Apr-28 19:53N 65°16' E 011°57'4 9.2
2017-Apr-28 19:26N 65°13' E 011°53'4 8.9
2017-Apr-28 19:00N 65°09' E 011°50'5 9.0
2017-Apr-28 18:30N 65°05' E 011°46'4 9.0
2017-Apr-28 18:00N 65°01' E 011°41'4 8.6
2017-Apr-28 17:30N 64°58' E 011°34'4 8.8
2017-Apr-28 17:00N 64°56' E 011°25'4 8.5
2017-Apr-28 16:31N 64°53' E 011°18'4 7.5
2017-Apr-28 16:00N 64°50' E 011°11'4 8.9
2017-Apr-28 15:30N 64°47' E 011°04'74 8.6
2017-Apr-28 06:55N 63°45' E 009°32'4 8.8
2017-Apr-28 06:31N 63°42' E 009°30'4 8.3
2017-Apr-28 06:00N 63°38' E 009°28'4 8.2
2017-Apr-28 05:30N 63°34' E 009°23'4 8.4
2017-Apr-28 05:00N 63°32' E 009°15'4 8.1
2017-Apr-28 04:30N 63°30' E 009°07'22 8.5
2017-Apr-28 01:59N 63°21' E 008°23'4 9.0
2017-Apr-28 01:30N 63°19' E 008°16'4 8.9
2017-Apr-28 01:00N 63°16' E 008°08'4 8.9
2017-Apr-28 00:30N 63°14' E 007°59'4 8.9
2017-Apr-28 00:00N 63°12' E 007°51'5 9.0
2017-Apr-27 23:30N 63°09' E 007°42'4 9.0
2017-Apr-27 23:00N 63°07' E 007°34'5 9.1
2017-Apr-27 22:30N 63°04' E 007°25'4 9.0
2017-Apr-27 22:00N 63°03' E 007°16'5 8.9
2017-Apr-27 21:30N 63°01' E 007°07'13 8.5
2017-Apr-27 19:56N 62°53' E 006°44'4 8.8
2017-Apr-27 19:31N 62°50' E 006°39'4 8.9
2017-Apr-27 19:01N 62°46' E 006°34'7 9.1
2017-Apr-27 18:15N 62°40' E 006°25'  
2017-Apr-24 19:24N 62°27' E 005°58'3 8.3
2017-Apr-24 18:59N 62°25' E 005°52'5 8.3
2017-Apr-24 18:20N 62°21' E 005°45'2 6.8
2017-Apr-24 18:00N 62°19' E 005°41'4 8.6
2017-Apr-24 17:30N 62°18' E 005°33'1 0.1
2017-Apr-23 18:14N 62°17' E 005°30'2 8.8
2017-Apr-23 18:00N 62°18' E 005°34'4 8.6
2017-Apr-23 17:30N 62°19' E 005°43'4 7.7
2017-Apr-23 17:00N 62°22' E 005°48'4 8.0
2017-Apr-23 16:30N 62°25' E 005°53'  

Dump ship's entire track history